Latest Weather Observations for Cape Moreton

IDQ60801

Issued at 4:32 pm EST Thursday 23 February 2017 (issued every 30 minutes, with the page automatically refreshed every 10 minutes)

About weather observations | Map of weather stations | Latest weather observations for QLD | Other Formats
Station Details ID: 040043 Name: CAPE MORETON LIGHTHOUSE Lat: -27.03 Lon: 153.47 Height: 99.9 m
Data from the previous 72 hours. | See also: Recent months at Cape Moreton
Date/Time
EST
Temp
°C
App
Temp
°C
Dew
Point
°C
Rel
Hum
%
Delta-T
°C
Wind Press
QNH
hPa
Press
MSL
hPa
Rain since
9am
mm
Dir  Spd
km/h
Gust
km/h
Spd
kts
Gust
kts
23/04:00pm 25.8 22.5 20.1 71 3.7 SE 37 46 20 25 1017.3 1016.8 0.0
23/03:30pm 25.8 21.7 19.2 67 4.3 SE 39 48 21 26 1017.2 1016.7 0.0
23/03:00pm 25.6 21.2 19.3 68 4.1 SE 41 50 22 27 1017.2 1016.7 0.0
23/02:30pm 25.2 20.7 20.0 73 3.4 SSE 43 54 23 29 1017.5 1017.0 0.0
23/02:00pm 25.9 22.4 19.5 68 4.1 SSE 37 48 20 26 1017.5 1017.0 0.0
23/01:30pm 26.0 22.7 19.2 66 4.4 SSE 35 50 19 27 1017.8 1017.3 0.0
23/01:00pm 26.1 23.0 18.8 64 4.7 SSE 33 46 18 25 1017.8 1017.3 0.0
23/12:30pm 26.4 23.6 19.0 63 4.8 SSE 32 44 17 24 1018.3 1017.8 0.0
23/12:00pm 26.1 22.6 18.8 64 4.7 SSE 35 46 19 25 1018.4 1017.9 0.0
23/11:30am 26.6 23.9 19.7 66 4.5 SSE 33 44 18 24 1018.7 1018.2 0.0
23/11:00am 26.9 23.8 18.5 60 5.4 SSE 32 39 17 21 1018.9 1018.4 0.0
23/10:30am 26.5 23.1 18.1 60 5.3 SE 33 43 18 23 1018.9 1018.4 0.0
23/10:00am 25.6 22.3 18.3 64 4.6 SSE 33 44 18 24 1019.0 1018.5 0.0
23/09:30am 25.7 22.4 18.4 64 4.6 SE 33 39 18 21 1019.0 1018.5 0.0
23/09:00am 25.0 21.0 18.4 66 4.2 SE 37 44 20 24 1018.8 1018.3 0.0
23/08:30am 25.6 22.1 18.8 66 4.4 SE 35 43 19 23 1018.6 1018.1 0.0
23/08:00am 24.9 21.8 18.4 67 4.1 SE 32 39 17 21 1018.6 1018.1 0.0
23/07:30am 25.1 21.3 17.1 61 5.0 SE 33 41 18 22 1018.3 1017.8 0.0
23/07:00am 24.3 19.8 17.3 65 4.4 SE 37 46 20 25 1018.0 1017.5 0.0
23/06:30am 24.1 20.4 17.4 66 4.2 SE 33 43 18 23 1017.7 1017.2 0.0
23/06:00am 24.0 20.6 17.7 68 3.9 SE 32 43 17 23 1017.7 1017.2 0.0
23/05:30am 23.7 19.3 16.7 65 4.3 SE 35 41 19 22 1017.3 1016.8 0.0
23/05:00am 23.7 19.7 16.7 65 4.3 SE 33 43 18 23 1017.2 1016.7 0.0
23/04:30am 23.7 19.3 16.7 65 4.3 SE 35 43 19 23 1017.1 1016.6 0.0
23/04:00am 23.7 18.2 15.7 61 4.8 SE 39 46 21 25 1016.9 1016.4 0.0
23/03:30am 23.8 17.5 15.6 60 5.0 SE 43 54 23 29 1016.8 1016.3 0.0
23/03:00am 23.9 17.5 15.4 59 5.1 SE 43 50 23 27 1016.9 1016.4 0.0
23/02:30am 24.0 18.6 16.0 61 4.9 SE 39 46 21 25 1017.2 1016.7 0.0
23/02:00am 23.9 17.0 15.7 60 5.0 SE 46 56 25 30 1017.2 1016.7 0.0
23/01:30am 24.0 18.1 16.8 64 4.4 ESE 43 50 23 27 1017.4 1016.9 0.0
23/01:00am 24.0 19.4 17.0 65 4.3 ESE 37 46 20 25 1017.8 1017.3 0.0
23/12:30am 24.2 19.7 16.5 62 4.7 SE 35 43 19 23 1018.2 1017.7 0.0
23/12:00am 24.2 19.3 17.4 65 4.2 ESE 39 46 21 25 1018.3 1017.8 0.0
 
Date/Time
EST
Temp
°C
App
Temp
°C
Dew
Point
°C
Rel
Hum
%
Delta-T
°C
Wind Press
QNH
hPa
Press
MSL
hPa
Rain since
9am
mm
Dir  Spd
km/h
Gust
km/h
Spd
kts
Gust
kts
22/11:30pm 24.1 18.4 17.1 65 4.3 ESE 43 50 23 27 1018.5 1018.0 0.0
22/11:00pm 24.1 18.3 15.9 60 5.0 ESE 41 48 22 26 1018.7 1018.2 0.0
22/10:30pm 24.1 18.3 16.9 64 4.5 ESE 43 52 23 28 1018.7 1018.2 0.0
22/10:00pm 24.3 18.9 17.1 64 4.5 ESE 41 52 22 28 1019.0 1018.5 0.0
22/09:30pm 24.4 18.3 17.6 66 4.3 SE 46 54 25 29 1018.7 1018.2 0.0
22/09:00pm 24.5 19.0 18.2 68 4.0 ESE 44 56 24 30 1018.8 1018.3 0.0
22/08:30pm 24.4 18.3 17.6 66 4.3 ESE 46 54 25 29 1018.8 1018.3 0.0
22/08:00pm 24.5 17.8 17.0 63 4.6 ESE 48 57 26 31 1018.3 1017.8 0.0
22/07:30pm 24.5 17.9 17.2 63 4.5 ESE 48 57 26 31 1017.9 1017.4 0.0
22/07:00pm 24.7 18.0 17.9 66 4.3 ESE 50 59 27 32 1017.7 1017.2 0.0
22/06:30pm 24.6 17.8 17.8 66 4.3 ESE 50 59 27 32 1017.2 1016.7 0.0
22/06:00pm 24.8 18.0 17.8 65 4.4 ESE 50 61 27 33 1017.1 1016.6 0.0
22/05:30pm 24.9 18.4 18.4 67 4.1 ESE 50 59 27 32 1016.8 1016.3 0.0
22/05:00pm 25.2 18.8 17.9 64 4.6 SE 48 57 26 31 1016.9 1016.4 0.0
22/04:30pm 25.2 19.1 17.7 63 4.7 ESE 46 56 25 30 1016.7 1016.2 0.0
22/04:00pm 25.4 19.2 17.3 61 5.1 SE 46 54 25 29 1016.9 1016.4 0.0
22/03:30pm 25.4 19.8 17.8 62 4.8 SE 44 56 24 30 1016.8 1016.3 0.0
22/03:00pm 25.5 19.8 17.7 62 4.9 SE 44 52 24 28 1016.9 1016.4 0.0
22/02:30pm 25.8 20.6 17.4 59 5.3 SE 41 50 22 27 1017.1 1016.6 0.0
22/02:00pm 26.2 20.5 17.3 58 5.6 SE 43 50 23 27 1017.5 1017.0 0.0
22/01:30pm 26.1 20.8 18.2 61 5.0 SE 43 50 23 27 1017.7 1017.2 0.0
22/01:00pm 26.0 21.2 18.4 63 4.8 SE 41 46 22 25 1017.8 1017.3 0.0
22/12:30pm 26.2 21.5 17.8 60 5.3 ESE 39 46 21 25 1018.1 1017.6 0.0
22/12:00pm 27.0 21.8 18.3 59 5.5 SE 43 50 23 27 1018.4 1017.9 0.0
22/11:30am 27.4 22.8 18.9 59 5.5 SE 41 48 22 26 1018.7 1018.2 0.0
22/11:00am 26.8 21.3 17.6 57 5.8 SE 43 50 23 27 1018.8 1018.3 0.0
22/10:30am 27.0 21.9 19.1 62 5.1 SE 44 54 24 29 1019.0 1018.5 0.0
22/10:00am 27.1 22.0 18.7 60 5.4 SE 43 52 23 28 1019.3 1018.8 0.0
22/09:30am 26.6 21.2 19.2 64 4.8 SE 46 56 25 30 1019.2 1018.7 0.0
22/09:00am 25.7 20.3 19.1 67 4.2 SE 46 54 25 29 1018.9 1018.4 0.0
22/08:30am 27.0 22.6 19.4 63 4.9 SE 41 52 22 28 1018.8 1018.3 0.0
22/08:00am 26.1 21.5 18.8 64 4.7 SE 41 46 22 25 1018.8 1018.3 0.0
22/07:30am 25.8 22.2 18.5 64 4.7 SE 35 43 19 23 1018.6 1018.1 0.0
22/07:00am 25.6 21.7 18.8 66 4.3 ESE 37 44 20 24 1018.3 1017.8 0.0
22/06:30am 25.1 21.2 18.8 68 4.0 ESE 37 44 20 24 1018.1 1017.6 0.0
22/06:00am 24.8 21.2 19.4 72 3.5 ESE 37 43 20 23 1017.9 1017.4 0.0
22/05:30am 24.8 21.5 19.2 71 3.6 ESE 35 43 19 23 1017.6 1017.1 0.0
22/05:00am 24.6 21.1 18.8 70 3.7 SE 35 43 19 23 1017.5 1017.0 0.0
22/04:30am 24.8 21.8 19.8 74 3.2 ESE 35 44 19 24 1017.1 1016.6 0.0
22/04:00am 24.7 21.5 19.5 73 3.4 ESE 35 41 19 22 1016.9 1016.4 0.0
22/03:30am 24.7 22.6 19.8 74 3.2 SE 30 37 16 20 1017.2 1016.7 0.0
22/03:00am 24.6 21.9 19.2 72 3.5 SE 32 39 17 21 1017.0 1016.5 0.0
22/02:30am 24.5 21.8 19.3 73 3.3 ESE 32 39 17 21 1017.1 1016.6 0.0
22/02:00am 24.6 21.8 19.4 73 3.3 ESE 33 41 18 22 1017.1 1016.6 0.0
22/01:30am 24.5 21.1 18.9 71 3.6 ESE 35 44 19 24 1017.1 1016.6 0.0
22/01:00am 24.5 20.3 18.9 71 3.6 ESE 39 46 21 25 1017.1 1016.6 0.0
22/12:30am 24.6 19.8 18.3 68 4.0 ESE 41 48 22 26 1017.3 1016.8 0.0
22/12:00am 24.6 19.6 18.8 70 3.7 ESE 43 52 23 28 1017.2 1016.7 0.0
 
Date/Time
EST
Temp
°C
App
Temp
°C
Dew
Point
°C
Rel
Hum
%
Delta-T
°C
Wind Press
QNH
hPa
Press
MSL
hPa
Rain since
9am
mm
Dir  Spd
km/h
Gust
km/h
Spd
kts
Gust
kts
21/11:30pm 24.7 18.9 18.4 68 4.0 ESE 46 52 25 28 1017.6 1017.1 0.0
21/11:00pm 24.8 19.7 19.0 70 3.7 ESE 44 54 24 29 1017.6 1017.1 0.0
21/10:30pm 24.9 20.0 19.5 72 3.5 ESE 44 54 24 29 1018.1 1017.6 0.0
21/10:00pm 24.9 19.3 18.8 69 3.9 ESE 46 52 25 28 1018.1 1017.6 0.0
21/09:30pm 25.1 20.1 19.2 70 3.8 ESE 44 54 24 29 1018.4 1017.9 0.0
21/09:00pm 25.0 19.8 18.7 68 4.0 ESE 44 54 24 29 1018.3 1017.8 0.0
21/08:30pm 25.1 20.2 19.0 69 3.9 ESE 43 52 23 28 1018.2 1017.7 0.0
21/08:00pm 25.1 19.8 18.5 67 4.2 ESE 44 52 24 28 1017.6 1017.1 0.0
21/07:30pm 25.2 20.0 18.4 66 4.3 ESE 43 54 23 29 1017.5 1017.0 0.0
21/07:00pm 25.3 20.0 18.5 66 4.3 ESE 44 54 24 29 1017.4 1016.9 0.0
21/06:30pm 25.5 20.3 18.9 67 4.2 ESE 44 52 24 28 1017.1 1016.6 0.0
21/06:00pm 25.6 20.5 19.0 67 4.2 ESE 44 52 24 28 1016.7 1016.2 0.0
21/05:30pm 26.1 20.6 18.0 61 5.1 ESE 44 52 24 28 1016.4 1015.9 0.0
21/05:00pm 26.3 22.1 20.6 71 3.8 ESE 43 52 23 28 1016.0 1015.5 0.0
21/04:30pm 26.8 23.2 20.9 70 3.9 ESE 41 50 22 27 1015.9 1015.4 0.0
21/04:00pm 26.8 22.6 20.6 69 4.1 ESE 43 50 23 27 1015.6 1015.1 0.0
21/03:30pm 26.8 23.2 20.2 67 4.3 ESE 39 46 21 25 1015.5 1015.0 0.0
21/03:00pm 27.5 24.1 20.6 66 4.6 ESE 39 44 21 24 1015.8 1015.3 0.0
21/02:30pm 27.7 24.2 20.3 64 4.9 ESE 39 46 21 25 1015.8 1015.3 0.0
21/02:00pm 28.1 25.1 19.9 61 5.4 ESE 35 43 19 23 1016.0 1015.5 0.0
21/01:30pm 27.8 24.4 19.8 61 5.2 SE 37 44 20 24 1016.0 1015.5 0.0
21/01:00pm 28.2 24.6 19.4 59 5.7 SE 37 44 20 24 1016.1 1015.6 0.0
21/12:30pm 28.2 24.6 19.4 59 5.7 SE 37 43 20 23 1016.4 1015.9 0.0
21/12:00pm 28.4 25.5 19.3 57 5.9 SE 33 41 18 22 1016.6 1016.1 0.0
21/11:30am 29.4 27.6 21.1 61 5.6 SE 32 39 17 21 1016.8 1016.3 0.0
21/11:00am 28.8 27.1 20.5 61 5.5 SE 30 35 16 19 1017.0 1016.5 0.0
21/10:30am 28.8 27.4 20.5 61 5.5 SE 28 32 15 17 1017.3 1016.8 0.0
21/10:00am 28.9 27.7 20.1 59 5.8 SE 26 32 14 17 1017.3 1016.8 0.0
21/09:30am 28.7 28.3 21.0 63 5.1 SE 24 28 13 15 1017.5 1017.0 0.0
21/09:00am 28.1 27.3 20.9 65 4.8 SE 26 30 14 16 1017.4 1016.9 0.0
21/08:30am 27.9 28.3 21.7 69 4.2 SE 22 28 12 15 1017.2 1016.7 0.0
21/08:00am 27.7 27.5 20.5 65 4.7 SE 22 28 12 15 1016.9 1016.4 0.0
21/07:30am 27.3 26.9 20.9 68 4.2 SE 24 28 13 15 1016.6 1016.1 0.0
21/07:00am 26.8 26.5 21.1 71 3.8 SE 24 28 13 15 1016.3 1015.8 0.0
21/06:30am 26.0 25.9 20.8 73 3.4 ESE 22 26 12 14 1016.0 1015.5 0.0
21/06:00am 24.8 24.3 20.7 78 2.7 ESE 24 28 13 15 1015.3 1014.8 0.0
21/05:30am 24.7 24.2 20.8 79 2.6 ESE 24 28 13 15 1014.9 1014.3 0.0
21/05:00am 24.7 24.3 21.0 80 2.4 ESE 24 30 13 16 1014.4 1013.8 0.0
21/04:30am 24.7 24.0 21.0 80 2.4 ESE 26 33 14 18 1014.1 1013.5 0.0
21/04:00am 24.8 24.3 21.5 82 2.2 ESE 26 32 14 17 1013.8 1013.2 0.0
21/03:30am 24.9 25.0 21.8 83 2.1 ESE 24 30 13 16 1013.6 1013.0 0.0
21/03:00am 24.8 25.6 21.7 83 2.1 ESE 20 24 11 13 1013.7 1013.1 0.0
21/02:30am 24.7 25.3 21.4 82 2.2 ESE 20 26 11 14 1013.6 1013.0 0.0
21/02:00am 24.7 25.4 21.6 83 2.1 ESE 20 24 11 13 1013.8 1013.2 0.0
21/01:30am 24.6 25.2 21.3 82 2.2 ESE 20 24 11 13 1014.0 1013.4 0.0
21/01:00am 24.8 25.2 21.7 83 2.1 ESE 22 30 12 16 1014.1 1013.5 0.0
21/12:30am 24.8 25.6 21.7 83 2.1 ESE 20 26 11 14 1014.6 1014.0 0.0
21/12:00am 25.0 25.5 21.9 83 2.1 ESE 22 28 12 15 1014.7 1014.1 0.0
 
Date/Time
EST
Temp
°C
App
Temp
°C
Dew
Point
°C
Rel
Hum
%
Delta-T
°C
Wind Press
QNH
hPa
Press
MSL
hPa
Rain since
9am
mm
Dir  Spd
km/h
Gust
km/h
Spd
kts
Gust
kts
20/11:30pm 24.9 25.2 22.2 85 1.8 ESE 24 28 13 15 1014.6 1014.0 0.0
20/11:00pm 25.0 25.3 22.3 85 1.8 ESE 24 30 13 16 1014.6 1014.0 0.0
20/10:30pm 25.0 24.9 22.3 85 1.8 ESE 26 32 14 17 1014.6 1014.0 0.0
20/10:00pm 25.1 25.0 22.2 84 1.9 ESE 26 30 14 16 1014.7 1014.1 0.0
20/09:30pm 25.0 24.8 22.1 84 1.9 ESE 26 32 14 17 1014.4 1013.8 0.0
20/09:00pm 25.0 24.5 22.1 84 1.9 ESE 28 35 15 19 1014.1 1013.5 0.0
20/08:30pm 25.1 24.2 22.2 84 1.9 ESE 30 35 16 19 1013.5 1012.9 0.0
20/08:00pm 25.0 24.2 21.7 82 2.2 ESE 28 33 15 18 1013.2 1012.6 0.0
20/07:30pm 25.0 23.8 21.5 81 2.3 ESE 30 37 16 20 1012.5 1012.0 0.0
20/07:00pm 25.2 23.8 21.9 82 2.2 ESE 32 37 17 20 1012.1 1011.6 0.0
20/06:30pm 25.3 24.0 21.4 79 2.6 ESE 30 35 16 19 1011.7 1011.2 0.0
20/06:00pm 25.6 23.9 20.6 74 3.3 ESE 30 35 16 19 1011.3 1010.8 0.0
20/05:30pm 26.4 25.5 21.4 74 3.3 ESE 28 33 15 18 1010.8 1010.3 0.0
20/05:00pm 26.6 25.5 21.8 75 3.2 ESE 30 33 16 18 1010.3 1009.8 0.0

Other Formats:

Comma delimited format used in spreadsheet applications
http://www.bom.gov.au/fwo/IDQ60801/IDQ60801.94594.axf

JavaScript Object Notation format (JSON) in row-major order
http://www.bom.gov.au/fwo/IDQ60801/IDQ60801.94594.json